sensor_id;sensor_type;location;lat;lon;timestamp;P1;durP1;ratioP1;P2;durP2;ratioP2
72882;SDS011;61017;37.812;-122.286;2023-07-30T00:01:30;9.05;;;4.78;;
72882;SDS011;61017;37.812;-122.286;2023-07-30T00:03:02;8.38;;;4.43;;
72882;SDS011;61017;37.812;-122.286;2023-07-30T00:04:37;7.65;;;4.70;;
72882;SDS011;61017;37.812;-122.286;2023-07-30T00:06:08;8.60;;;4.78;;
72882;SDS011;61017;37.812;-122.286;2023-07-30T00:07:40;8.45;;;4.90;;
72882;SDS011;61017;37.812;-122.286;2023-07-30T00:09:11;7.63;;;4.68;;
72882;SDS011;61017;37.812;-122.286;2023-07-30T00:10:43;9.40;;;5.00;;
72882;SDS011;61017;37.812;-122.286;2023-07-30T00:12:15;9.68;;;5.07;;
72882;SDS011;61017;37.812;-122.286;2023-07-30T00:13:46;7.20;;;4.78;;
72882;SDS011;61017;37.812;-122.286;2023-07-30T00:15:18;7.80;;;4.82;;
72882;SDS011;61017;37.812;-122.286;2023-07-30T00:16:50;7.70;;;4.27;;
72882;SDS011;61017;37.812;-122.286;2023-07-30T00:18:22;9.15;;;5.00;;
72882;SDS011;61017;37.812;-122.286;2023-07-30T00:19:54;7.63;;;4.57;;
72882;SDS011;61017;37.812;-122.286;2023-07-30T00:21:25;9.38;;;4.70;;
72882;SDS011;61017;37.812;-122.286;2023-07-30T00:22:57;10.10;;;5.32;;
72882;SDS011;61017;37.812;-122.286;2023-07-30T00:24:28;9.68;;;4.70;;
72882;SDS011;61017;37.812;-122.286;2023-07-30T00:26:00;10.73;;;5.10;;
72882;SDS011;61017;37.812;-122.286;2023-07-30T00:27:34;7.32;;;4.57;;
72882;SDS011;61017;37.812;-122.286;2023-07-30T00:29:06;9.40;;;4.80;;
72882;SDS011;61017;37.812;-122.286;2023-07-30T00:30:37;8.88;;;4.63;;
72882;SDS011;61017;37.812;-122.286;2023-07-30T00:32:09;10.00;;;5.00;;
72882;SDS011;61017;37.812;-122.286;2023-07-30T00:33:41;9.13;;;5.38;;
72882;SDS011;61017;37.812;-122.286;2023-07-30T00:35:12;9.13;;;4.40;;
72882;SDS011;61017;37.812;-122.286;2023-07-30T00:36:44;7.68;;;4.60;;
72882;SDS011;61017;37.812;-122.286;2023-07-30T00:38:15;8.43;;;4.35;;
72882;SDS011;61017;37.812;-122.286;2023-07-30T00:39:47;11.15;;;5.13;;
72882;SDS011;61017;37.812;-122.286;2023-07-30T00:41:19;7.93;;;4.80;;
72882;SDS011;61017;37.812;-122.286;2023-07-30T00:42:50;9.50;;;5.20;;
72882;SDS011;61017;37.812;-122.286;2023-07-30T00:44:22;10.20;;;5.00;;
72882;SDS011;61017;37.812;-122.286;2023-07-30T00:45:54;9.82;;;5.00;;
72882;SDS011;61017;37.812;-122.286;2023-07-30T00:47:26;11.02;;;4.88;;
72882;SDS011;61017;37.812;-122.286;2023-07-30T00:48:57;10.03;;;4.80;;
72882;SDS011;61017;37.812;-122.286;2023-07-30T00:50:29;10.73;;;5.18;;
72882;SDS011;61017;37.812;-122.286;2023-07-30T00:52:01;8.60;;;4.78;;
72882;SDS011;61017;37.812;-122.286;2023-07-30T00:53:34;7.85;;;4.28;;
72882;SDS011;61017;37.812;-122.286;2023-07-30T00:55:08;9.23;;;5.07;;
72882;SDS011;61017;37.812;-122.286;2023-07-30T00:56:41;10.73;;;5.07;;
72882;SDS011;61017;37.812;-122.286;2023-07-30T00:58:21;11.13;;;5.32;;
72882;SDS011;61017;37.812;-122.286;2023-07-30T00:59:53;10.20;;;4.65;;
72882;SDS011;61017;37.812;-122.286;2023-07-30T01:01:30;10.20;;;4.55;;
72882;SDS011;61017;37.812;-122.286;2023-07-30T01:03:17;8.05;;;4.63;;
72882;SDS011;61017;37.812;-122.286;2023-07-30T01:04:51;9.27;;;4.80;;
72882;SDS011;61017;37.812;-122.286;2023-07-30T01:06:23;11.52;;;4.85;;
72882;SDS011;61017;37.812;-122.286;2023-07-30T01:07:55;9.30;;;4.95;;
72882;SDS011;61017;37.812;-122.286;2023-07-30T01:09:26;10.48;;;4.80;;
72882;SDS011;61017;37.812;-122.286;2023-07-30T01:11:02;11.63;;;5.20;;
72882;SDS011;61017;37.812;-122.286;2023-07-30T01:12:34;9.77;;;5.10;;
72882;SDS011;61017;37.812;-122.286;2023-07-30T01:15:44;10.52;;;4.88;;
72882;SDS011;61017;37.812;-122.286;2023-07-30T01:17:18;13.35;;;4.97;;
72882;SDS011;61017;37.812;-122.286;2023-07-30T01:18:50;8.50;;;4.50;;
72882;SDS011;61017;37.812;-122.286;2023-07-30T01:20:22;15.20;;;5.63;;
72882;SDS011;61017;37.812;-122.286;2023-07-30T01:21:54;14.18;;;5.10;;
72882;SDS011;61017;37.812;-122.286;2023-07-30T01:23:28;14.75;;;5.50;;
72882;SDS011;61017;37.812;-122.286;2023-07-30T01:25:00;16.48;;;5.10;;
72882;SDS011;61017;37.812;-122.286;2023-07-30T01:28:12;16.10;;;4.82;;
72882;SDS011;61017;37.812;-122.286;2023-07-30T01:29:52;15.07;;;4.80;;
72882;SDS011;61017;37.812;-122.286;2023-07-30T01:31:28;12.95;;;4.90;;
72882;SDS011;61017;37.812;-122.286;2023-07-30T01:33:04;20.58;;;4.60;;
72882;SDS011;61017;37.812;-122.286;2023-07-30T01:34:37;16.95;;;4.85;;
72882;SDS011;61017;37.812;-122.286;2023-07-30T01:36:11;16.67;;;4.28;;
72882;SDS011;61017;37.812;-122.286;2023-07-30T01:37:49;16.33;;;5.00;;
72882;SDS011;61017;37.812;-122.286;2023-07-30T01:39:22;16.40;;;3.97;;
72882;SDS011;61017;37.812;-122.286;2023-07-30T01:40:54;16.40;;;4.53;;
72882;SDS011;61017;37.812;-122.286;2023-07-30T01:42:29;12.38;;;3.92;;
72882;SDS011;61017;37.812;-122.286;2023-07-30T01:44:01;16.27;;;4.45;;
72882;SDS011;61017;37.812;-122.286;2023-07-30T01:45:33;14.05;;;4.18;;
72882;SDS011;61017;37.812;-122.286;2023-07-30T01:47:08;16.73;;;4.50;;
72882;SDS011;61017;37.812;-122.286;2023-07-30T01:48:42;18.42;;;4.80;;
72882;SDS011;61017;37.812;-122.286;2023-07-30T01:50:14;18.00;;;4.63;;
72882;SDS011;61017;37.812;-122.286;2023-07-30T01:51:47;19.15;;;4.80;;
72882;SDS011;61017;37.812;-122.286;2023-07-30T01:53:19;13.20;;;4.47;;
72882;SDS011;61017;37.812;-122.286;2023-07-30T01:54:51;16.40;;;4.50;;
72882;SDS011;61017;37.812;-122.286;2023-07-30T01:56:22;14.68;;;4.55;;
72882;SDS011;61017;37.812;-122.286;2023-07-30T01:57:55;15.05;;;4.47;;
72882;SDS011;61017;37.812;-122.286;2023-07-30T01:59:26;14.48;;;4.53;;
72882;SDS011;61017;37.812;-122.286;2023-07-30T02:01:00;23.55;;;4.82;;
72882;SDS011;61017;37.812;-122.286;2023-07-30T02:02:32;17.85;;;4.63;;
72882;SDS011;61017;37.812;-122.286;2023-07-30T02:04:03;18.55;;;4.93;;
72882;SDS011;61017;37.812;-122.286;2023-07-30T02:05:35;14.32;;;5.18;;
72882;SDS011;61017;37.812;-122.286;2023-07-30T02:07:07;18.57;;;4.80;;
72882;SDS011;61017;37.812;-122.286;2023-07-30T02:08:39;17.17;;;5.03;;
72882;SDS011;61017;37.812;-122.286;2023-07-30T02:10:10;14.18;;;5.00;;
72882;SDS011;61017;37.812;-122.286;2023-07-30T02:11:42;12.40;;;4.47;;
72882;SDS011;61017;37.812;-122.286;2023-07-30T02:13:14;15.60;;;4.72;;
72882;SDS011;61017;37.812;-122.286;2023-07-30T02:14:45;14.05;;;4.65;;
72882;SDS011;61017;37.812;-122.286;2023-07-30T02:16:17;14.43;;;4.93;;
72882;SDS011;61017;37.812;-122.286;2023-07-30T02:17:48;14.60;;;4.57;;
72882;SDS011;61017;37.812;-122.286;2023-07-30T02:19:20;17.50;;;5.43;;
72882;SDS011;61017;37.812;-122.286;2023-07-30T02:20:52;16.42;;;4.90;;
72882;SDS011;61017;37.812;-122.286;2023-07-30T02:22:23;17.35;;;4.85;;
72882;SDS011;61017;37.812;-122.286;2023-07-30T02:23:55;13.02;;;4.78;;
72882;SDS011;61017;37.812;-122.286;2023-07-30T02:25:29;17.98;;;4.88;;
72882;SDS011;61017;37.812;-122.286;2023-07-30T02:27:03;16.65;;;5.13;;
72882;SDS011;61017;37.812;-122.286;2023-07-30T02:28:35;12.13;;;4.55;;
72882;SDS011;61017;37.812;-122.286;2023-07-30T02:30:07;14.27;;;4.53;;
72882;SDS011;61017;37.812;-122.286;2023-07-30T02:31:39;12.85;;;4.80;;
72882;SDS011;61017;37.812;-122.286;2023-07-30T02:33:10;16.42;;;4.88;;
72882;SDS011;61017;37.812;-122.286;2023-07-30T02:34:42;15.20;;;5.13;;
72882;SDS011;61017;37.812;-122.286;2023-07-30T02:36:13;12.93;;;4.50;;
72882;SDS011;61017;37.812;-122.286;2023-07-30T02:37:45;16.02;;;4.53;;
72882;SDS011;61017;37.812;-122.286;2023-07-30T02:39:17;15.82;;;4.82;;
72882;SDS011;61017;37.812;-122.286;2023-07-30T02:40:48;14.65;;;4.82;;
72882;SDS011;61017;37.812;-122.286;2023-07-30T02:42:20;14.30;;;4.32;;
72882;SDS011;61017;37.812;-122.286;2023-07-30T02:43:51;13.27;;;4.80;;
72882;SDS011;61017;37.812;-122.286;2023-07-30T02:45:26;15.05;;;4.80;;
72882;SDS011;61017;37.812;-122.286;2023-07-30T02:46:57;14.20;;;4.78;;
72882;SDS011;61017;37.812;-122.286;2023-07-30T02:48:32;15.15;;;4.97;;
72882;SDS011;61017;37.812;-122.286;2023-07-30T02:50:04;15.50;;;5.10;;
72882;SDS011;61017;37.812;-122.286;2023-07-30T02:51:40;15.15;;;5.57;;
72882;SDS011;61017;37.812;-122.286;2023-07-30T02:53:11;16.73;;;5.55;;
72882;SDS011;61017;37.812;-122.286;2023-07-30T02:54:43;22.35;;;6.13;;
72882;SDS011;61017;37.812;-122.286;2023-07-30T02:56:15;21.02;;;5.28;;
72882;SDS011;61017;37.812;-122.286;2023-07-30T02:57:46;17.00;;;5.35;;
72882;SDS011;61017;37.812;-122.286;2023-07-30T02:59:18;17.50;;;5.10;;
72882;SDS011;61017;37.812;-122.286;2023-07-30T03:00:50;16.30;;;5.30;;
72882;SDS011;61017;37.812;-122.286;2023-07-30T03:02:23;15.77;;;4.63;;
72882;SDS011;61017;37.812;-122.286;2023-07-30T03:03:55;13.32;;;5.25;;
72882;SDS011;61017;37.812;-122.286;2023-07-30T03:05:32;12.80;;;5.28;;
72882;SDS011;61017;37.812;-122.286;2023-07-30T03:07:04;16.05;;;5.45;;
72882;SDS011;61017;37.812;-122.286;2023-07-30T03:08:39;16.10;;;5.28;;
72882;SDS011;61017;37.812;-122.286;2023-07-30T03:10:14;14.20;;;5.22;;
72882;SDS011;61017;37.812;-122.286;2023-07-30T03:11:46;12.00;;;5.00;;
72882;SDS011;61017;37.812;-122.286;2023-07-30T03:13:17;16.13;;;5.07;;
72882;SDS011;61017;37.812;-122.286;2023-07-30T03:14:49;16.30;;;6.03;;
72882;SDS011;61017;37.812;-122.286;2023-07-30T03:16:20;15.57;;;5.55;;
72882;SDS011;61017;37.812;-122.286;2023-07-30T03:17:52;15.63;;;5.20;;
72882;SDS011;61017;37.812;-122.286;2023-07-30T03:19:23;17.02;;;5.60;;
72882;SDS011;61017;37.812;-122.286;2023-07-30T03:21:01;11.63;;;5.22;;
72882;SDS011;61017;37.812;-122.286;2023-07-30T03:22:33;15.07;;;5.45;;
72882;SDS011;61017;37.812;-122.286;2023-07-30T03:24:05;15.73;;;5.43;;
72882;SDS011;61017;37.812;-122.286;2023-07-30T03:25:39;12.23;;;5.00;;
72882;SDS011;61017;37.812;-122.286;2023-07-30T03:27:10;16.83;;;5.53;;
72882;SDS011;61017;37.812;-122.286;2023-07-30T03:28:42;12.82;;;5.20;;
72882;SDS011;61017;37.812;-122.286;2023-07-30T03:30:23;12.85;;;5.25;;
72882;SDS011;61017;37.812;-122.286;2023-07-30T03:31:55;11.82;;;5.10;;
72882;SDS011;61017;37.812;-122.286;2023-07-30T03:33:26;14.40;;;5.97;;
72882;SDS011;61017;37.812;-122.286;2023-07-30T03:34:58;10.80;;;5.18;;
72882;SDS011;61017;37.812;-122.286;2023-07-30T03:36:30;15.93;;;5.55;;
72882;SDS011;61017;37.812;-122.286;2023-07-30T03:38:01;13.73;;;5.55;;
72882;SDS011;61017;37.812;-122.286;2023-07-30T03:39:36;11.80;;;5.25;;
72882;SDS011;61017;37.812;-122.286;2023-07-30T03:41:08;11.35;;;5.10;;
72882;SDS011;61017;37.812;-122.286;2023-07-30T03:44:11;13.20;;;5.20;;
72882;SDS011;61017;37.812;-122.286;2023-07-30T03:45:45;12.82;;;5.40;;
72882;SDS011;61017;37.812;-122.286;2023-07-30T03:47:20;13.60;;;5.30;;
72882;SDS011;61017;37.812;-122.286;2023-07-30T03:48:52;15.10;;;5.30;;
72882;SDS011;61017;37.812;-122.286;2023-07-30T03:50:23;12.68;;;5.65;;
72882;SDS011;61017;37.812;-122.286;2023-07-30T03:51:55;13.90;;;5.30;;
72882;SDS011;61017;37.812;-122.286;2023-07-30T03:53:31;12.32;;;5.57;;
72882;SDS011;61017;37.812;-122.286;2023-07-30T03:55:05;11.10;;;5.32;;
72882;SDS011;61017;37.812;-122.286;2023-07-30T03:56:36;12.60;;;5.32;;
72882;SDS011;61017;37.812;-122.286;2023-07-30T03:58:08;14.88;;;5.57;;
72882;SDS011;61017;37.812;-122.286;2023-07-30T03:59:40;13.82;;;5.75;;
72882;SDS011;61017;37.812;-122.286;2023-07-30T04:01:11;13.80;;;5.68;;
72882;SDS011;61017;37.812;-122.286;2023-07-30T04:02:46;13.43;;;5.40;;
72882;SDS011;61017;37.812;-122.286;2023-07-30T04:04:18;15.85;;;5.60;;
72882;SDS011;61017;37.812;-122.286;2023-07-30T04:05:55;15.15;;;5.50;;
72882;SDS011;61017;37.812;-122.286;2023-07-30T04:07:27;11.15;;;5.35;;
72882;SDS011;61017;37.812;-122.286;2023-07-30T04:09:01;13.75;;;5.80;;
72882;SDS011;61017;37.812;-122.286;2023-07-30T04:10:35;12.25;;;5.47;;
72882;SDS011;61017;37.812;-122.286;2023-07-30T04:12:07;15.23;;;5.65;;
72882;SDS011;61017;37.812;-122.286;2023-07-30T04:13:42;14.07;;;5.68;;
72882;SDS011;61017;37.812;-122.286;2023-07-30T04:15:14;9.82;;;5.40;;
72882;SDS011;61017;37.812;-122.286;2023-07-30T04:16:46;14.98;;;5.32;;
72882;SDS011;61017;37.812;-122.286;2023-07-30T04:18:33;12.38;;;5.53;;
72882;SDS011;61017;37.812;-122.286;2023-07-30T04:20:05;13.50;;;6.07;;
72882;SDS011;61017;37.812;-122.286;2023-07-30T04:21:43;13.80;;;5.68;;
72882;SDS011;61017;37.812;-122.286;2023-07-30T04:23:15;12.23;;;5.80;;
72882;SDS011;61017;37.812;-122.286;2023-07-30T04:24:46;12.60;;;5.35;;
72882;SDS011;61017;37.812;-122.286;2023-07-30T04:26:18;13.13;;;5.57;;
72882;SDS011;61017;37.812;-122.286;2023-07-30T04:28:03;12.73;;;5.70;;
72882;SDS011;61017;37.812;-122.286;2023-07-30T04:29:36;13.13;;;5.75;;
72882;SDS011;61017;37.812;-122.286;2023-07-30T04:31:08;10.98;;;5.55;;
72882;SDS011;61017;37.812;-122.286;2023-07-30T04:32:43;12.25;;;5.72;;
72882;SDS011;61017;37.812;-122.286;2023-07-30T04:34:17;9.45;;;5.30;;
72882;SDS011;61017;37.812;-122.286;2023-07-30T04:35:54;12.52;;;5.40;;
72882;SDS011;61017;37.812;-122.286;2023-07-30T04:37:26;10.60;;;5.00;;
72882;SDS011;61017;37.812;-122.286;2023-07-30T04:38:57;11.02;;;5.78;;
72882;SDS011;61017;37.812;-122.286;2023-07-30T04:40:29;12.52;;;5.45;;
72882;SDS011;61017;37.812;-122.286;2023-07-30T04:42:01;10.30;;;5.78;;
72882;SDS011;61017;37.812;-122.286;2023-07-30T04:43:33;13.98;;;6.20;;
72882;SDS011;61017;37.812;-122.286;2023-07-30T04:45:05;11.52;;;5.78;;
72882;SDS011;61017;37.812;-122.286;2023-07-30T04:46:37;11.38;;;5.72;;
72882;SDS011;61017;37.812;-122.286;2023-07-30T04:48:12;12.05;;;5.57;;
72882;SDS011;61017;37.812;-122.286;2023-07-30T04:49:43;12.20;;;5.88;;
72882;SDS011;61017;37.812;-122.286;2023-07-30T04:53:05;10.75;;;5.63;;
72882;SDS011;61017;37.812;-122.286;2023-07-30T04:54:38;12.65;;;5.97;;
72882;SDS011;61017;37.812;-122.286;2023-07-30T04:56:12;12.23;;;5.70;;
72882;SDS011;61017;37.812;-122.286;2023-07-30T04:57:47;11.35;;;5.90;;
72882;SDS011;61017;37.812;-122.286;2023-07-30T04:59:18;11.68;;;5.85;;
72882;SDS011;61017;37.812;-122.286;2023-07-30T05:00:50;10.52;;;5.65;;
72882;SDS011;61017;37.812;-122.286;2023-07-30T05:02:25;15.93;;;6.28;;
72882;SDS011;61017;37.812;-122.286;2023-07-30T05:04:00;12.02;;;5.72;;
72882;SDS011;61017;37.812;-122.286;2023-07-30T05:05:35;11.07;;;5.75;;
72882;SDS011;61017;37.812;-122.286;2023-07-30T05:07:06;12.45;;;5.75;;
72882;SDS011;61017;37.812;-122.286;2023-07-30T05:08:38;11.90;;;5.93;;
72882;SDS011;61017;37.812;-122.286;2023-07-30T05:10:34;12.93;;;5.35;;
72882;SDS011;61017;37.812;-122.286;2023-07-30T05:12:10;11.02;;;5.38;;
72882;SDS011;61017;37.812;-122.286;2023-07-30T05:13:45;12.52;;;5.38;;
72882;SDS011;61017;37.812;-122.286;2023-07-30T05:15:17;10.10;;;5.03;;
72882;SDS011;61017;37.812;-122.286;2023-07-30T05:16:51;11.27;;;5.55;;
72882;SDS011;61017;37.812;-122.286;2023-07-30T05:18:31;11.40;;;5.57;;
72882;SDS011;61017;37.812;-122.286;2023-07-30T05:20:03;9.95;;;5.20;;
72882;SDS011;61017;37.812;-122.286;2023-07-30T05:21:35;14.47;;;6.03;;
72882;SDS011;61017;37.812;-122.286;2023-07-30T05:23:12;10.13;;;5.38;;
72882;SDS011;61017;37.812;-122.286;2023-07-30T05:24:46;10.85;;;5.72;;
72882;SDS011;61017;37.812;-122.286;2023-07-30T05:26:29;12.40;;;6.00;;
72882;SDS011;61017;37.812;-122.286;2023-07-30T05:28:01;11.85;;;5.70;;
72882;SDS011;61017;37.812;-122.286;2023-07-30T05:29:42;11.93;;;5.65;;
72882;SDS011;61017;37.812;-122.286;2023-07-30T05:31:19;11.50;;;5.72;;
72882;SDS011;61017;37.812;-122.286;2023-07-30T05:32:51;10.10;;;5.35;;
72882;SDS011;61017;37.812;-122.286;2023-07-30T05:34:26;11.60;;;5.63;;
72882;SDS011;61017;37.812;-122.286;2023-07-30T05:35:58;9.88;;;5.72;;
72882;SDS011;61017;37.812;-122.286;2023-07-30T05:37:29;12.27;;;5.78;;
72882;SDS011;61017;37.812;-122.286;2023-07-30T05:39:01;11.88;;;5.85;;
72882;SDS011;61017;37.812;-122.286;2023-07-30T05:40:33;10.43;;;5.57;;
72882;SDS011;61017;37.812;-122.286;2023-07-30T05:42:06;11.85;;;5.97;;
72882;SDS011;61017;37.812;-122.286;2023-07-30T05:43:38;10.35;;;5.68;;
72882;SDS011;61017;37.812;-122.286;2023-07-30T05:45:10;10.38;;;5.65;;
72882;SDS011;61017;37.812;-122.286;2023-07-30T05:46:47;10.00;;;5.40;;
72882;SDS011;61017;37.812;-122.286;2023-07-30T05:48:19;10.07;;;5.60;;
72882;SDS011;61017;37.812;-122.286;2023-07-30T05:49:51;12.25;;;6.10;;
72882;SDS011;61017;37.812;-122.286;2023-07-30T05:51:31;9.20;;;5.70;;
72882;SDS011;61017;37.812;-122.286;2023-07-30T05:53:06;12.23;;;6.07;;
72882;SDS011;61017;37.812;-122.286;2023-07-30T05:54:40;9.73;;;5.70;;
72882;SDS011;61017;37.812;-122.286;2023-07-30T05:56:12;10.20;;;5.57;;
72882;SDS011;61017;37.812;-122.286;2023-07-30T05:57:52;9.60;;;5.35;;
72882;SDS011;61017;37.812;-122.286;2023-07-30T05:59:26;8.27;;;5.20;;
72882;SDS011;61017;37.812;-122.286;2023-07-30T06:01:00;10.98;;;5.53;;
72882;SDS011;61017;37.812;-122.286;2023-07-30T06:02:32;11.85;;;5.85;;
72882;SDS011;61017;37.812;-122.286;2023-07-30T06:04:13;11.25;;;5.68;;
72882;SDS011;61017;37.812;-122.286;2023-07-30T06:08:29;9.05;;;5.20;;
72882;SDS011;61017;37.812;-122.286;2023-07-30T06:10:15;11.23;;;5.57;;
72882;SDS011;61017;37.812;-122.286;2023-07-30T06:11:47;10.18;;;5.00;;
72882;SDS011;61017;37.812;-122.286;2023-07-30T06:13:19;8.65;;;5.28;;
72882;SDS011;61017;37.812;-122.286;2023-07-30T06:15:03;9.95;;;5.30;;
72882;SDS011;61017;37.812;-122.286;2023-07-30T06:16:39;9.05;;;5.60;;
72882;SDS011;61017;37.812;-122.286;2023-07-30T06:18:13;9.13;;;5.22;;
72882;SDS011;61017;37.812;-122.286;2023-07-30T06:19:44;10.32;;;5.50;;
72882;SDS011;61017;37.812;-122.286;2023-07-30T06:21:16;8.57;;;5.25;;
72882;SDS011;61017;37.812;-122.286;2023-07-30T06:22:48;11.43;;;6.05;;
72882;SDS011;61017;37.812;-122.286;2023-07-30T06:24:19;10.23;;;5.60;;
72882;SDS011;61017;37.812;-122.286;2023-07-30T06:25:51;12.05;;;5.70;;
72882;SDS011;61017;37.812;-122.286;2023-07-30T06:27:23;8.88;;;5.30;;
72882;SDS011;61017;37.812;-122.286;2023-07-30T06:28:54;11.02;;;5.40;;
72882;SDS011;61017;37.812;-122.286;2023-07-30T06:30:26;9.63;;;5.35;;
72882;SDS011;61017;37.812;-122.286;2023-07-30T06:31:57;11.40;;;5.70;;
72882;SDS011;61017;37.812;-122.286;2023-07-30T06:33:31;9.20;;;5.38;;
72882;SDS011;61017;37.812;-122.286;2023-07-30T06:35:03;8.70;;;5.30;;
72882;SDS011;61017;37.812;-122.286;2023-07-30T06:36:35;10.52;;;5.40;;
72882;SDS011;61017;37.812;-122.286;2023-07-30T06:38:10;9.52;;;5.32;;
72882;SDS011;61017;37.812;-122.286;2023-07-30T06:39:42;9.95;;;5.40;;
72882;SDS011;61017;37.812;-122.286;2023-07-30T06:41:14;9.65;;;5.55;;
72882;SDS011;61017;37.812;-122.286;2023-07-30T06:42:46;9.25;;;5.30;;
72882;SDS011;61017;37.812;-122.286;2023-07-30T06:44:20;8.88;;;5.55;;
72882;SDS011;61017;37.812;-122.286;2023-07-30T06:46:00;11.57;;;5.63;;
72882;SDS011;61017;37.812;-122.286;2023-07-30T06:47:32;9.00;;;5.15;;
72882;SDS011;61017;37.812;-122.286;2023-07-30T06:49:03;9.25;;;5.38;;
72882;SDS011;61017;37.812;-122.286;2023-07-30T06:50:35;9.02;;;5.35;;
72882;SDS011;61017;37.812;-122.286;2023-07-30T06:52:30;9.48;;;5.43;;
72882;SDS011;61017;37.812;-122.286;2023-07-30T06:54:02;9.30;;;5.28;;
72882;SDS011;61017;37.812;-122.286;2023-07-30T06:55:33;9.90;;;5.65;;
72882;SDS011;61017;37.812;-122.286;2023-07-30T06:57:08;10.05;;;6.03;;
72882;SDS011;61017;37.812;-122.286;2023-07-30T06:58:39;10.45;;;5.55;;
72882;SDS011;61017;37.812;-122.286;2023-07-30T07:00:15;10.77;;;5.50;;
72882;SDS011;61017;37.812;-122.286;2023-07-30T07:01:52;8.15;;;5.13;;
72882;SDS011;61017;37.812;-122.286;2023-07-30T07:03:24;9.02;;;5.53;;
72882;SDS011;61017;37.812;-122.286;2023-07-30T07:04:58;9.55;;;5.20;;
72882;SDS011;61017;37.812;-122.286;2023-07-30T07:06:36;11.18;;;5.50;;
72882;SDS011;61017;37.812;-122.286;2023-07-30T07:08:07;11.95;;;5.85;;
72882;SDS011;61017;37.812;-122.286;2023-07-30T07:09:42;10.82;;;5.53;;
72882;SDS011;61017;37.812;-122.286;2023-07-30T07:11:16;9.68;;;5.32;;
72882;SDS011;61017;37.812;-122.286;2023-07-30T07:12:48;9.48;;;5.53;;
72882;SDS011;61017;37.812;-122.286;2023-07-30T07:14:20;10.20;;;5.43;;
72882;SDS011;61017;37.812;-122.286;2023-07-30T07:15:57;10.07;;;5.68;;
72882;SDS011;61017;37.812;-122.286;2023-07-30T07:17:29;10.05;;;5.18;;
72882;SDS011;61017;37.812;-122.286;2023-07-30T07:19:01;9.85;;;5.22;;
72882;SDS011;61017;37.812;-122.286;2023-07-30T07:20:32;9.90;;;5.60;;
72882;SDS011;61017;37.812;-122.286;2023-07-30T07:22:07;10.48;;;5.50;;
72882;SDS011;61017;37.812;-122.286;2023-07-30T07:23:38;9.57;;;5.50;;
72882;SDS011;61017;37.812;-122.286;2023-07-30T07:25:16;9.60;;;5.45;;
72882;SDS011;61017;37.812;-122.286;2023-07-30T07:26:57;8.90;;;5.45;;
72882;SDS011;61017;37.812;-122.286;2023-07-30T07:28:31;9.57;;;5.40;;
72882;SDS011;61017;37.812;-122.286;2023-07-30T07:30:02;9.77;;;5.43;;
72882;SDS011;61017;37.812;-122.286;2023-07-30T07:31:34;9.30;;;5.18;;
72882;SDS011;61017;37.812;-122.286;2023-07-30T07:33:09;8.98;;;5.63;;
72882;SDS011;61017;37.812;-122.286;2023-07-30T07:34:41;10.80;;;5.70;;
72882;SDS011;61017;37.812;-122.286;2023-07-30T07:36:17;10.55;;;5.78;;
72882;SDS011;61017;37.812;-122.286;2023-07-30T07:37:52;10.98;;;5.60;;
72882;SDS011;61017;37.812;-122.286;2023-07-30T07:39:23;10.20;;;5.53;;
72882;SDS011;61017;37.812;-122.286;2023-07-30T07:40:55;8.98;;;5.43;;
72882;SDS011;61017;37.812;-122.286;2023-07-30T07:42:27;8.55;;;5.57;;
72882;SDS011;61017;37.812;-122.286;2023-07-30T07:43:59;9.03;;;5.30;;
72882;SDS011;61017;37.812;-122.286;2023-07-30T07:45:31;10.20;;;5.55;;
72882;SDS011;61017;37.812;-122.286;2023-07-30T07:47:02;9.00;;;5.40;;
72882;SDS011;61017;37.812;-122.286;2023-07-30T07:48:34;9.73;;;5.50;;
72882;SDS011;61017;37.812;-122.286;2023-07-30T07:50:06;9.52;;;5.60;;
72882;SDS011;61017;37.812;-122.286;2023-07-30T07:51:38;10.02;;;5.45;;
72882;SDS011;61017;37.812;-122.286;2023-07-30T07:53:12;8.68;;;5.72;;
72882;SDS011;61017;37.812;-122.286;2023-07-30T07:54:47;9.52;;;5.28;;
72882;SDS011;61017;37.812;-122.286;2023-07-30T07:56:23;10.73;;;6.03;;
72882;SDS011;61017;37.812;-122.286;2023-07-30T07:57:57;9.85;;;5.75;;
72882;SDS011;61017;37.812;-122.286;2023-07-30T07:59:32;11.88;;;5.80;;
72882;SDS011;61017;37.812;-122.286;2023-07-30T08:01:03;9.88;;;5.63;;
72882;SDS011;61017;37.812;-122.286;2023-07-30T08:02:35;10.13;;;5.50;;
72882;SDS011;61017;37.812;-122.286;2023-07-30T08:04:09;11.75;;;5.60;;
72882;SDS011;61017;37.812;-122.286;2023-07-30T08:05:42;10.05;;;5.07;;
72882;SDS011;61017;37.812;-122.286;2023-07-30T08:07:18;8.65;;;5.28;;
72882;SDS011;61017;37.812;-122.286;2023-07-30T08:08:56;11.38;;;6.05;;
72882;SDS011;61017;37.812;-122.286;2023-07-30T08:10:31;8.82;;;5.47;;
72882;SDS011;61017;37.812;-122.286;2023-07-30T08:12:03;10.43;;;5.80;;
72882;SDS011;61017;37.812;-122.286;2023-07-30T08:13:38;9.03;;;5.57;;
72882;SDS011;61017;37.812;-122.286;2023-07-30T08:15:09;9.23;;;5.60;;
72882;SDS011;61017;37.812;-122.286;2023-07-30T08:16:41;9.13;;;5.53;;
72882;SDS011;61017;37.812;-122.286;2023-07-30T08:18:21;11.75;;;5.57;;
72882;SDS011;61017;37.812;-122.286;2023-07-30T08:19:52;9.48;;;5.43;;
72882;SDS011;61017;37.812;-122.286;2023-07-30T08:21:24;11.60;;;5.53;;
72882;SDS011;61017;37.812;-122.286;2023-07-30T08:22:58;10.98;;;5.63;;
72882;SDS011;61017;37.812;-122.286;2023-07-30T08:24:30;9.32;;;5.20;;
72882;SDS011;61017;37.812;-122.286;2023-07-30T08:26:02;11.73;;;5.35;;
72882;SDS011;61017;37.812;-122.286;2023-07-30T08:27:34;9.82;;;5.30;;
72882;SDS011;61017;37.812;-122.286;2023-07-30T08:29:08;10.65;;;5.40;;
72882;SDS011;61017;37.812;-122.286;2023-07-30T08:30:45;11.50;;;5.50;;
72882;SDS011;61017;37.812;-122.286;2023-07-30T08:32:22;11.18;;;5.60;;
72882;SDS011;61017;37.812;-122.286;2023-07-30T08:33:53;10.20;;;5.13;;
72882;SDS011;61017;37.812;-122.286;2023-07-30T08:35:25;12.40;;;5.40;;
72882;SDS011;61017;37.812;-122.286;2023-07-30T08:36:56;10.98;;;5.28;;
72882;SDS011;61017;37.812;-122.286;2023-07-30T08:38:28;11.50;;;5.32;;
72882;SDS011;61017;37.812;-122.286;2023-07-30T08:40:00;10.18;;;4.97;;
72882;SDS011;61017;37.812;-122.286;2023-07-30T08:41:31;14.88;;;5.47;;
72882;SDS011;61017;37.812;-122.286;2023-07-30T08:43:08;10.88;;;5.47;;
72882;SDS011;61017;37.812;-122.286;2023-07-30T08:44:40;11.10;;;5.10;;
72882;SDS011;61017;37.812;-122.286;2023-07-30T08:46:12;10.93;;;4.97;;
72882;SDS011;61017;37.812;-122.286;2023-07-30T08:47:44;13.63;;;4.85;;
72882;SDS011;61017;37.812;-122.286;2023-07-30T08:49:20;11.75;;;4.95;;
72882;SDS011;61017;37.812;-122.286;2023-07-30T08:50:57;11.57;;;4.82;;
72882;SDS011;61017;37.812;-122.286;2023-07-30T08:52:31;10.43;;;5.38;;
72882;SDS011;61017;37.812;-122.286;2023-07-30T08:54:06;10.38;;;4.75;;
72882;SDS011;61017;37.812;-122.286;2023-07-30T08:55:39;10.57;;;5.13;;
72882;SDS011;61017;37.812;-122.286;2023-07-30T08:57:12;10.07;;;4.90;;
72882;SDS011;61017;37.812;-122.286;2023-07-30T08:58:46;9.68;;;4.75;;
72882;SDS011;61017;37.812;-122.286;2023-07-30T09:00:20;11.70;;;5.35;;
72882;SDS011;61017;37.812;-122.286;2023-07-30T09:01:55;8.60;;;4.65;;
72882;SDS011;61017;37.812;-122.286;2023-07-30T09:03:28;8.18;;;4.45;;